Time;durP1;ratioP1;P1;durP2;ratioP2;P2;SDS_P1;SDS_P2;PMS_P1;PMS_P2;Temp;Humidity;BMP_temperature;BMP_pressure;BME280_temperature;BME280_humidity;BME280_pressure;Samples;Min_cycle;Max_cycle;Signal;HPM_P1;HPM_P2
2021/10/03 00:08:02;;;;;;;6.15;3.88;;;;;;;;;;21080004;28;20088;-59
2021/10/03 00:18:06;;;;;;;6.35;2.45;;;;;;;;;;21079936;28;20044;-71
2021/10/03 00:28:10;;;;;;;2.70;2.08;;;;;;;;;;21082460;28;20056;-70
2021/10/03 00:38:22;;;;;;;4.20;3.00;;;;;;;;;;21084378;28;20484;-72
2021/10/03 00:48:41;;;;;;;3.60;2.20;;;;;;;;;;20830898;28;20061;-72
2021/10/03 00:58:44;;;;;;;3.00;2.08;;;;;;;;;;20822000;28;20128;-60
2021/10/03 01:08:47;;;;;;;3.05;2.03;;;;;;;;;;20839712;28;20064;-60
2021/10/03 01:18:55;;;;;;;2.38;1.70;;;;;;;;;;20889713;28;20044;-61
2021/10/03 01:28:58;;;;;;;3.30;2.35;;;;;;;;;;21076152;28;20412;-61
2021/10/03 01:39:03;;;;;;;2.55;1.88;;;;;;;;;;21104058;28;20080;-62
2021/10/03 01:49:22;;;;;;;2.50;1.90;;;;;;;;;;21116878;28;20047;-69
2021/10/03 01:59:36;;;;;;;3.17;2.23;;;;;;;;;;21105188;28;20074;-65
2021/10/03 02:09:53;;;;;;;3.45;2.28;;;;;;;;;;21092777;28;20064;-61
2021/10/03 02:20:07;;;;;;;3.13;2.35;;;;;;;;;;21089841;28;20396;-64
2021/10/03 02:30:30;;;;;;;2.42;1.85;;;;;;;;;;21089347;28;20379;-59
2021/10/03 02:40:52;;;;;;;2.72;2.00;;;;;;;;;;21088549;28;20382;-58
2021/10/03 02:51:14;;;;;;;3.38;1.73;;;;;;;;;;21086472;28;20040;-60
2021/10/03 03:01:27;;;;;;;2.58;1.80;;;;;;;;;;21085960;28;20060;-71
2021/10/03 03:11:37;;;;;;;1.92;1.60;;;;;;;;;;21085501;28;20074;-67
2021/10/03 03:21:50;;;;;;;2.33;1.60;;;;;;;;;;21084784;28;20059;-66
2021/10/03 03:31:59;;;;;;;3.00;1.83;;;;;;;;;;21084287;28;20072;-61
2021/10/03 03:42:10;;;;;;;2.20;1.50;;;;;;;;;;21083688;28;20496;-73
2021/10/03 03:52:32;;;;;;;2.35;1.30;;;;;;;;;;21082587;28;20051;-58
2021/10/03 04:02:53;;;;;;;2.35;1.40;;;;;;;;;;21082088;28;20064;-58
2021/10/03 04:13:15;;;;;;;1.52;1.08;;;;;;;;;;21080571;28;20097;-69
2021/10/03 04:23:31;;;;;;;3.95;0.98;;;;;;;;;;21079869;28;20069;-70
2021/10/03 04:33:42;;;;;;;1.45;1.00;;;;;;;;;;21079837;28;20048;-72
2021/10/03 04:43:56;;;;;;;2.33;0.90;;;;;;;;;;21079267;28;20056;-60
2021/10/03 04:54:13;;;;;;;1.70;0.80;;;;;;;;;;21078329;28;20411;-60
2021/10/03 05:04:18;;;;;;;2.47;0.93;;;;;;;;;;21077880;28;20109;-60
2021/10/03 05:14:31;;;;;;;1.30;1.00;;;;;;;;;;21077326;28;20138;-60
2021/10/03 05:24:42;;;;;;;3.42;1.00;;;;;;;;;;21077527;28;20075;-60
2021/10/03 05:34:51;;;;;;;1.75;1.10;;;;;;;;;;21060678;28;20516;-66
2021/10/03 05:44:59;;;;;;;2.30;1.10;;;;;;;;;;21061260;28;20055;-64
2021/10/03 05:55:07;;;;;;;1.75;1.10;;;;;;;;;;21091765;28;20082;-73
2021/10/03 06:05:13;;;;;;;1.52;0.90;;;;;;;;;;21073988;28;20048;-64
2021/10/03 06:15:22;;;;;;;2.47;1.33;;;;;;;;;;21090639;28;20484;-67
2021/10/03 06:25:24;;;;;;;3.33;1.10;;;;;;;;;;21089317;28;20048;-70
2021/10/03 06:35:30;;;;;;;2.35;1.05;;;;;;;;;;21089439;28;20130;-65
2021/10/03 06:45:34;;;;;;;2.13;1.00;;;;;;;;;;21087920;28;20113;-70
2021/10/03 06:55:37;;;;;;;2.10;0.88;;;;;;;;;;21092121;28;20078;-70
2021/10/03 07:05:40;;;;;;;2.07;1.10;;;;;;;;;;21085913;28;20055;-63
2021/10/03 07:15:44;;;;;;;2.80;1.27;;;;;;;;;;21085659;28;20059;-60
2021/10/03 07:25:47;;;;;;;2.87;1.30;;;;;;;;;;21085007;28;20052;-59
2021/10/03 07:35:52;;;;;;;1.95;1.20;;;;;;;;;;21084941;28;20123;-60
2021/10/03 07:45:55;;;;;;;3.90;1.48;;;;;;;;;;21082760;28;20064;-65
2021/10/03 07:56:01;;;;;;;2.40;1.50;;;;;;;;;;21082738;28;20411;-60
2021/10/03 08:06:06;;;;;;;2.30;1.30;;;;;;;;;;21080970;28;20105;-64
2021/10/03 08:16:10;;;;;;;3.80;2.45;;;;;;;;;;21079718;28;20040;-67
2021/10/03 08:26:18;;;;;;;7.15;3.78;;;;;;;;;;21080520;28;20087;-61
2021/10/03 08:36:22;;;;;;;13.70;8.73;;;;;;;;;;21079824;28;20443;-71
2021/10/03 08:46:27;;;;;;;9.45;5.38;;;;;;;;;;21078042;28;20055;-63
2021/10/03 08:56:40;;;;;;;7.20;4.22;;;;;;;;;;21077793;28;20507;-62
2021/10/03 09:07:01;;;;;;;6.13;3.95;;;;;;;;;;21079701;28;20048;-66
2021/10/03 09:17:17;;;;;;;4.95;2.08;;;;;;;;;;21078604;28;20079;-60
2021/10/03 09:27:45;;;;;;;4.50;2.97;;;;;;;;;;21090135;28;20134;-62
2021/10/03 09:37:52;;;;;;;5.50;2.70;;;;;;;;;;21093073;28;20047;-61
2021/10/03 09:48:07;;;;;;;6.00;3.25;;;;;;;;;;21092160;28;20054;-72
2021/10/03 09:58:20;;;;;;;14.80;10.02;;;;;;;;;;21074779;28;20491;-67
2021/10/03 10:08:33;;;;;;;7.45;5.55;;;;;;;;;;21090199;28;20132;-61
2021/10/03 10:18:44;;;;;;;8.82;3.70;;;;;;;;;;21089709;28;20548;-71
2021/10/03 10:28:54;;;;;;;9.15;3.22;;;;;;;;;;21089248;28;20071;-60
2021/10/03 10:39:12;;;;;;;6.28;3.75;;;;;;;;;;21091498;28;20067;-63
2021/10/03 10:49:35;;;;;;;6.65;4.05;;;;;;;;;;21103862;28;20415;-63
2021/10/03 10:59:59;;;;;;;6.20;4.25;;;;;;;;;;21088475;28;20060;-59
2021/10/03 11:10:08;;;;;;;4.22;1.90;;;;;;;;;;21084575;28;20091;-61
2021/10/03 11:20:15;;;;;;;5.35;3.03;;;;;;;;;;21091493;28;20048;-60
2021/10/03 11:30:22;;;;;;;2.78;1.95;;;;;;;;;;21083533;28;20058;-61
2021/10/03 11:40:32;;;;;;;4.38;2.60;;;;;;;;;;21083518;28;20127;-65
2021/10/03 11:50:47;;;;;;;10.90;7.63;;;;;;;;;;21085314;28;20500;-59
2021/10/03 12:00:54;;;;;;;3.80;1.40;;;;;;;;;;21081953;28;20052;-61
2021/10/03 12:11:03;;;;;;;2.70;1.05;;;;;;;;;;21081327;28;20048;-73
2021/10/03 12:21:09;;;;;;;4.30;1.77;;;;;;;;;;21081603;28;20055;-71
2021/10/03 12:31:14;;;;;;;1.55;0.90;;;;;;;;;;21079380;28;20051;-61
2021/10/03 12:41:19;;;;;;;1.85;1.00;;;;;;;;;;21079657;28;20082;-60
2021/10/03 12:51:22;;;;;;;2.63;1.30;;;;;;;;;;21079028;28;20086;-70
2021/10/03 13:01:37;;;;;;;3.53;0.95;;;;;;;;;;21090392;28;20151;-64
2021/10/03 13:11:41;;;;;;;2.05;1.10;;;;;;;;;;21095458;28;20134;-68
2021/10/03 13:21:51;;;;;;;3.28;1.00;;;;;;;;;;21078158;28;20048;-61
2021/10/03 13:31:56;;;;;;;1.55;0.95;;;;;;;;;;21092928;28;20047;-61
2021/10/03 13:42:03;;;;;;;2.78;0.80;;;;;;;;;;21072710;28;20480;-76
2021/10/03 13:52:11;;;;;;;2.80;0.90;;;;;;;;;;21089223;28;20044;-66
2021/10/03 14:02:18;;;;;;;4.70;2.13;;;;;;;;;;21092521;28;20052;-75
2021/10/03 14:12:25;;;;;;;1.73;0.90;;;;;;;;;;21088959;28;20165;-71
2021/10/03 14:22:36;;;;;;;1.70;0.70;;;;;;;;;;21089868;28;20048;-74
2021/10/03 14:32:41;;;;;;;1.77;0.90;;;;;;;;;;21101561;28;20048;-62
2021/10/03 14:42:47;;;;;;;2.97;1.38;;;;;;;;;;21086121;28;20048;-60
2021/10/03 14:52:54;;;;;;;1.52;0.90;;;;;;;;;;21086969;28;20048;-60
2021/10/03 15:02:58;;;;;;;1.58;0.70;;;;;;;;;;21084284;28;20062;-66
2021/10/03 15:13:04;;;;;;;1.35;0.50;;;;;;;;;;21086645;28;20044;-72
2021/10/03 15:23:06;;;;;;;2.40;1.42;;;;;;;;;;21087210;28;20091;-66
2021/10/03 15:33:10;;;;;;;0.73;0.60;;;;;;;;;;21083406;28;20039;-60
2021/10/03 15:43:18;;;;;;;5.38;3.53;;;;;;;;;;21083216;28;20048;-64
2021/10/03 15:53:22;;;;;;;2.97;1.55;;;;;;;;;;21080707;28;20131;-60
2021/10/03 16:03:25;;;;;;;2.35;0.90;;;;;;;;;;21079093;28;20129;-59
2021/10/03 16:13:27;;;;;;;1.42;0.80;;;;;;;;;;21077992;28;20051;-59
2021/10/03 16:23:30;;;;;;;0.98;0.52;;;;;;;;;;21077842;28;20135;-65
2021/10/03 16:33:34;;;;;;;1.23;0.73;;;;;;;;;;21077095;28;20178;-61
2021/10/03 16:43:40;;;;;;;1.48;0.57;;;;;;;;;;21076589;28;20412;-60
2021/10/03 16:53:42;;;;;;;1.60;0.80;;;;;;;;;;21076238;28;20351;-61
2021/10/03 17:03:44;;;;;;;1.58;0.75;;;;;;;;;;21075768;28;20060;-60
2021/10/03 17:13:46;;;;;;;2.78;0.85;;;;;;;;;;21075304;28;20266;-64
2021/10/03 17:23:48;;;;;;;3.17;1.50;;;;;;;;;;21074745;28;20052;-60
2021/10/03 17:33:50;;;;;;;3.15;1.10;;;;;;;;;;21074261;28;20136;-61
2021/10/03 17:43:52;;;;;;;1.15;0.70;;;;;;;;;;21080180;28;20048;-74
2021/10/03 17:53:54;;;;;;;1.75;0.88;;;;;;;;;;21089815;28;20127;-75
2021/10/03 18:03:57;;;;;;;1.73;1.00;;;;;;;;;;21088565;28;20063;-64
2021/10/03 18:14:00;;;;;;;4.82;2.55;;;;;;;;;;21088079;28;20149;-61
2021/10/03 18:24:02;;;;;;;1.83;1.27;;;;;;;;;;21086594;28;20044;-61
2021/10/03 18:34:04;;;;;;;2.92;1.38;;;;;;;;;;21087004;28;20448;-62
2021/10/03 18:44:08;;;;;;;3.25;1.65;;;;;;;;;;21085563;28;20462;-61
2021/10/03 18:54:10;;;;;;;1.83;0.70;;;;;;;;;;21084672;28;20065;-61
2021/10/03 19:04:12;;;;;;;2.78;0.88;;;;;;;;;;21083695;28;20058;-61
2021/10/03 19:14:15;;;;;;;2.60;0.85;;;;;;;;;;21083640;28;20040;-60
2021/10/03 19:24:16;;;;;;;2.00;1.00;;;;;;;;;;21083041;28;20075;-62
2021/10/03 19:34:18;;;;;;;1.33;0.90;;;;;;;;;;21081938;28;20044;-60
2021/10/03 19:44:20;;;;;;;2.88;1.45;;;;;;;;;;21081573;28;20403;-62
2021/10/03 19:54:25;;;;;;;3.47;1.70;;;;;;;;;;21080260;28;20052;-61
2021/10/03 20:04:27;;;;;;;2.25;1.17;;;;;;;;;;21062226;28;20454;-62
2021/10/03 20:14:29;;;;;;;2.80;1.05;;;;;;;;;;21082450;28;20048;-67
2021/10/03 20:24:32;;;;;;;4.28;1.70;;;;;;;;;;21080728;28;20051;-69
2021/10/03 20:34:34;;;;;;;2.15;1.30;;;;;;;;;;21081471;28;20044;-61
2021/10/03 20:44:37;;;;;;;2.77;1.30;;;;;;;;;;21085061;28;20093;-61
2021/10/03 20:54:40;;;;;;;3.38;1.92;;;;;;;;;;21080765;28;20131;-64
2021/10/03 21:04:41;;;;;;;2.08;1.30;;;;;;;;;;21078592;28;20557;-62
2021/10/03 21:14:44;;;;;;;2.88;1.70;;;;;;;;;;21078926;28;20051;-61
2021/10/03 21:24:46;;;;;;;4.07;2.30;;;;;;;;;;21094421;28;20134;-61
2021/10/03 21:34:49;;;;;;;5.50;1.98;;;;;;;;;;21094034;28;20048;-65
2021/10/03 21:44:53;;;;;;;2.47;1.30;;;;;;;;;;21093350;28;20043;-61
2021/10/03 21:54:55;;;;;;;3.97;2.20;;;;;;;;;;21094740;28;20047;-65
2021/10/03 22:04:57;;;;;;;4.28;1.58;;;;;;;;;;21090827;28;20060;-63
2021/10/03 22:15:01;;;;;;;4.25;2.08;;;;;;;;;;21090617;28;20051;-66
2021/10/03 22:25:05;;;;;;;2.87;1.20;;;;;;;;;;21090444;28;20511;-67
2021/10/03 22:35:09;;;;;;;;;;;;;;;;;;21091091;28;20517;-60
2021/10/03 22:45:12;;;;;;;1.92;0.90;;;;;;;;;;21089696;28;19920;-69
2021/10/03 22:55:15;;;;;;;2.03;0.90;;;;;;;;;;21090562;28;20101;-67
2021/10/03 23:05:17;;;;;;;3.05;1.17;;;;;;;;;;21087839;28;20150;-61
2021/10/03 23:15:25;;;;;;;2.10;0.80;;;;;;;;;;21087716;28;20450;-67
2021/10/03 23:25:27;;;;;;;2.95;0.88;;;;;;;;;;21085656;28;20059;-63
2021/10/03 23:35:29;;;;;;;3.25;1.10;;;;;;;;;;21084213;28;20047;-61
2021/10/03 23:45:31;;;;;;;3.45;1.58;;;;;;;;;;21084276;28;20052;-61
2021/10/03 23:55:33;;;;;;;2.38;1.23;;;;;;;;;;21067120;28;20044;-61
